createdAt,value
2023-05-14T00:01:16.072Z,12.37
2023-05-14T00:03:42.871Z,12.32
2023-05-14T00:06:10.883Z,12.29
2023-05-14T00:08:37.565Z,12.22
2023-05-14T00:11:04.314Z,12.18
2023-05-14T00:13:30.986Z,12.17
2023-05-14T00:15:57.661Z,12.18
2023-05-14T00:18:24.485Z,12.19
2023-05-14T00:20:54.726Z,12.21
2023-05-14T00:23:22.450Z,12.25
2023-05-14T00:25:49.111Z,12.28
2023-05-14T00:28:16.089Z,12.29
2023-05-14T00:30:42.736Z,12.32
2023-05-14T00:33:09.615Z,12.34
2023-05-14T00:35:37.086Z,12.32
2023-05-14T00:38:03.883Z,12.28
2023-05-14T00:40:30.726Z,12.23
2023-05-14T00:42:57.435Z,12.16
2023-05-14T00:45:24.692Z,12.09
2023-05-14T00:47:51.767Z,12.06
2023-05-14T00:50:18.487Z,12.06
2023-05-14T00:52:45.131Z,12.08
2023-05-14T00:55:12.967Z,12.12
2023-05-14T00:57:40.703Z,12.16
2023-05-14T01:00:08.989Z,12.19
2023-05-14T01:02:35.706Z,12.22
2023-05-14T01:05:02.413Z,12.24
2023-05-14T01:07:35.091Z,12.26
2023-05-14T01:10:15.998Z,12.26
2023-05-14T01:13:07.495Z,12.26
2023-05-14T01:15:35.097Z,12.25
2023-05-14T01:18:11.639Z,12.21
2023-05-14T01:20:38.350Z,12.18
2023-05-14T01:23:05.060Z,12.14
2023-05-14T01:25:32.160Z,12.10
2023-05-14T01:28:15.456Z,12.07
2023-05-14T01:31:04.817Z,12.02
2023-05-14T01:33:31.488Z,11.98
2023-05-14T01:35:58.595Z,11.95
2023-05-14T01:38:25.362Z,11.92
2023-05-14T01:40:52.097Z,11.90
2023-05-14T01:43:18.975Z,11.88
2023-05-14T01:45:45.782Z,11.88
2023-05-14T01:48:12.621Z,11.85
2023-05-14T01:50:39.420Z,11.82
2023-05-14T01:53:06.514Z,11.79
2023-05-14T01:55:33.260Z,11.78
2023-05-14T01:57:59.952Z,11.75
2023-05-14T02:00:27.183Z,11.66
2023-05-14T02:02:53.802Z,11.60
2023-05-14T02:05:21.277Z,11.55
2023-05-14T02:07:48.014Z,11.52
2023-05-14T02:10:15.933Z,11.47
2023-05-14T02:12:42.738Z,11.41
2023-05-14T02:15:11.073Z,11.35
2023-05-14T02:17:38.082Z,11.33
2023-05-14T02:20:05.630Z,11.31
2023-05-14T02:22:32.289Z,11.29
2023-05-14T02:24:58.927Z,11.26
2023-05-14T02:27:26.076Z,11.23
2023-05-14T02:29:52.896Z,11.21
2023-05-14T02:32:19.636Z,11.19
2023-05-14T02:34:46.350Z,11.15
2023-05-14T02:37:13.081Z,11.10
2023-05-14T02:39:39.819Z,11.07
2023-05-14T02:42:07.053Z,11.05
2023-05-14T02:44:33.810Z,11.04
2023-05-14T02:47:00.622Z,11.02
2023-05-14T02:49:27.420Z,11.01
2023-05-14T02:51:57.046Z,11.00
2023-05-14T02:54:23.844Z,10.99
2023-05-14T02:56:50.710Z,10.98
2023-05-14T02:59:17.483Z,10.97
2023-05-14T03:01:44.768Z,10.99
2023-05-14T03:04:12.104Z,11.03
2023-05-14T03:06:38.728Z,11.04
2023-05-14T03:09:05.487Z,11.03
2023-05-14T03:11:32.233Z,11.04
2023-05-14T03:13:58.874Z,11.07
2023-05-14T03:16:25.543Z,11.07
2023-05-14T03:18:52.279Z,11.08
2023-05-14T03:21:19.120Z,11.11
2023-05-14T03:23:45.781Z,11.10
2023-05-14T03:26:12.458Z,11.11
2023-05-14T03:28:40.808Z,11.13
2023-05-14T03:31:07.588Z,11.15
2023-05-14T03:33:34.371Z,11.19
2023-05-14T03:36:01.061Z,11.25
2023-05-14T03:38:27.719Z,11.31
2023-05-14T03:40:54.381Z,11.33
2023-05-14T03:43:21.185Z,11.35
2023-05-14T03:45:52.512Z,11.41
2023-05-14T03:48:20.126Z,11.48
2023-05-14T03:50:46.953Z,11.56
2023-05-14T03:53:13.679Z,11.65
2023-05-14T03:55:40.550Z,11.73
2023-05-14T03:58:13.954Z,11.84
2023-05-14T04:00:41.851Z,11.94
2023-05-14T04:03:09.728Z,12.04
2023-05-14T04:05:36.508Z,12.13
2023-05-14T04:08:03.350Z,12.21
2023-05-14T04:10:30.974Z,12.27
2023-05-14T04:12:59.454Z,12.32
2023-05-14T04:15:30.632Z,12.38
2023-05-14T04:17:57.584Z,12.42
2023-05-14T04:20:24.460Z,12.45
2023-05-14T04:22:51.265Z,12.48
2023-05-14T04:25:18.647Z,12.52
2023-05-14T04:27:45.486Z,12.58
2023-05-14T04:30:12.538Z,12.62
2023-05-14T04:32:39.451Z,12.69
2023-05-14T04:35:06.847Z,12.77
2023-05-14T04:37:33.503Z,12.85
2023-05-14T04:40:00.438Z,12.95
2023-05-14T04:42:27.071Z,13.05
2023-05-14T04:44:53.745Z,13.14
2023-05-14T04:47:21.216Z,13.25
2023-05-14T04:49:48.097Z,13.35
2023-05-14T04:52:15.003Z,13.45
2023-05-14T04:54:41.715Z,13.55
2023-05-14T04:57:08.420Z,13.66
2023-05-14T04:59:35.123Z,13.78
2023-05-14T05:02:01.833Z,13.90
2023-05-14T05:04:28.495Z,14.01
2023-05-14T05:06:55.484Z,14.14
2023-05-14T05:09:22.140Z,14.27
2023-05-14T05:11:48.803Z,14.40
2023-05-14T05:14:15.491Z,14.52
2023-05-14T05:16:42.265Z,14.65
2023-05-14T05:19:09.246Z,14.78
2023-05-14T05:21:36.407Z,14.90
2023-05-14T05:24:03.497Z,15.02
2023-05-14T05:26:30.422Z,15.14
2023-05-14T05:31:28.281Z,15.40
2023-05-14T05:33:55.024Z,15.51
2023-05-14T05:36:21.662Z,15.63
2023-05-14T05:38:48.350Z,15.76
2023-05-14T05:41:15.008Z,15.88
2023-05-14T05:43:41.665Z,16.00
2023-05-14T05:46:08.478Z,16.13
2023-05-14T05:48:35.221Z,16.25
2023-05-14T05:51:02.131Z,16.38
2023-05-14T05:53:28.782Z,16.50
2023-05-14T05:55:55.483Z,16.62
2023-05-14T05:58:22.147Z,16.74
2023-05-14T06:00:48.859Z,16.86
2023-05-14T06:03:16.163Z,16.98
2023-05-14T06:05:43.054Z,17.09
2023-05-14T06:08:09.979Z,17.20
2023-05-14T06:10:37.582Z,17.33
2023-05-14T06:13:04.203Z,17.46
2023-05-14T06:15:30.843Z,17.57
2023-05-14T06:17:57.870Z,17.68
2023-05-14T06:20:24.833Z,17.79
2023-05-14T06:22:51.679Z,17.91
2023-05-14T06:25:18.559Z,18.02
2023-05-14T06:27:45.374Z,18.12
2023-05-14T06:30:12.688Z,18.21
2023-05-14T06:32:39.396Z,18.30
2023-05-14T06:35:06.702Z,18.39
2023-05-14T06:37:33.585Z,18.48
2023-05-14T06:40:01.172Z,18.58
2023-05-14T06:42:27.993Z,18.66
2023-05-14T06:44:54.839Z,18.75
2023-05-14T06:47:21.780Z,18.84
2023-05-14T06:49:48.565Z,18.93
2023-05-14T06:52:15.209Z,19.03
2023-05-14T06:54:41.868Z,19.12
2023-05-14T06:57:08.483Z,19.21
2023-05-14T06:59:35.114Z,19.30
2023-05-14T07:02:02.490Z,19.39
2023-05-14T07:04:29.328Z,19.45
2023-05-14T07:06:55.981Z,19.51
2023-05-14T07:09:22.625Z,19.56
2023-05-14T07:11:49.322Z,19.62
2023-05-14T07:14:16.009Z,19.67
2023-05-14T07:16:42.848Z,19.72
2023-05-14T07:19:09.603Z,19.80
2023-05-14T07:21:36.306Z,19.89
2023-05-14T07:24:03.033Z,19.98
2023-05-14T07:26:30.476Z,20.06
2023-05-14T07:28:57.355Z,20.15
2023-05-14T07:31:24.192Z,20.24
2023-05-14T07:33:51.086Z,20.33
2023-05-14T07:36:21.722Z,20.40
2023-05-14T07:38:49.226Z,20.48
2023-05-14T07:41:16.242Z,20.55
2023-05-14T07:43:42.980Z,20.62
2023-05-14T07:46:09.628Z,20.69
2023-05-14T07:48:36.433Z,20.75
2023-05-14T07:51:03.099Z,20.82
2023-05-14T07:53:29.787Z,20.88
2023-05-14T07:55:56.484Z,20.96
2023-05-14T07:58:23.649Z,21.02
2023-05-14T08:00:50.601Z,21.09
2023-05-14T08:03:17.426Z,21.15
2023-05-14T08:05:44.163Z,21.21
2023-05-14T08:08:10.976Z,21.27
2023-05-14T08:10:37.730Z,21.34
2023-05-14T08:13:04.516Z,21.39
2023-05-14T08:15:31.316Z,21.44
2023-05-14T08:18:03.306Z,21.51
2023-05-14T08:20:31.217Z,21.58
2023-05-14T08:22:58.239Z,21.65
2023-05-14T08:25:24.983Z,21.71
2023-05-14T08:27:51.804Z,21.78
2023-05-14T08:30:18.561Z,21.84
2023-05-14T08:32:45.325Z,21.88
2023-05-14T08:35:12.122Z,21.90
2023-05-14T08:37:39.102Z,21.94
2023-05-14T08:40:08.096Z,22.02
2023-05-14T08:42:35.004Z,22.12
2023-05-14T08:45:02.718Z,22.22
2023-05-14T08:47:32.832Z,22.28
2023-05-14T08:50:04.521Z,22.33
2023-05-14T08:52:31.360Z,22.36
2023-05-14T08:54:59.356Z,22.41
2023-05-14T08:57:26.680Z,22.46
2023-05-14T08:59:53.872Z,22.52
2023-05-14T09:02:25.030Z,22.55
2023-05-14T09:04:57.133Z,22.55
2023-05-14T09:07:24.168Z,22.52
2023-05-14T09:09:51.568Z,22.51
2023-05-14T09:12:18.298Z,22.52
2023-05-14T09:14:45.553Z,22.56
2023-05-14T09:17:12.821Z,22.64
2023-05-14T09:19:43.864Z,22.74
2023-05-14T09:22:15.478Z,22.83
2023-05-14T09:24:42.479Z,22.95
2023-05-14T09:27:09.811Z,23.06
2023-05-14T09:29:37.199Z,23.14
2023-05-14T09:32:05.358Z,23.20
2023-05-14T09:34:34.179Z,23.27
2023-05-14T09:37:02.860Z,23.34
2023-05-14T09:39:29.674Z,23.35
2023-05-14T09:41:56.426Z,23.31
2023-05-14T09:44:23.629Z,23.27
2023-05-14T09:46:50.535Z,23.21
2023-05-14T09:49:17.402Z,23.12
2023-05-14T09:51:44.149Z,23.03
2023-05-14T09:54:10.917Z,22.90
2023-05-14T09:56:37.701Z,22.77
2023-05-14T09:59:04.397Z,22.64
2023-05-14T10:01:31.602Z,22.55
2023-05-14T10:03:58.664Z,22.48
2023-05-14T10:06:28.139Z,22.41
2023-05-14T10:09:01.474Z,22.34
2023-05-14T10:11:30.935Z,22.29
2023-05-14T10:14:18.845Z,22.20
2023-05-14T10:16:49.271Z,22.13
2023-05-14T10:19:17.875Z,22.07
2023-05-14T10:21:56.644Z,22.03
2023-05-14T10:24:23.361Z,22.00
2023-05-14T10:26:50.086Z,21.95
2023-05-14T10:29:16.820Z,21.88
2023-05-14T10:31:51.580Z,21.85
2023-05-14T10:34:44.672Z,21.90
2023-05-14T10:37:12.256Z,21.99
2023-05-14T10:39:52.240Z,22.09
2023-05-14T10:42:23.161Z,22.21
2023-05-14T10:45:09.840Z,22.32
2023-05-14T10:47:37.228Z,22.43
2023-05-14T10:50:05.365Z,22.52
2023-05-14T10:52:32.172Z,22.59
2023-05-14T10:55:03.206Z,22.63
2023-05-14T10:57:31.672Z,22.63
2023-05-14T10:59:59.975Z,22.62
2023-05-14T11:02:39.802Z,22.59
2023-05-14T11:05:13.752Z,22.56
2023-05-14T11:07:42.095Z,22.52
2023-05-14T11:10:09.793Z,22.48
2023-05-14T11:12:37.716Z,22.46
2023-05-14T11:15:11.904Z,22.46
2023-05-14T11:17:39.044Z,22.45
2023-05-14T11:20:09.840Z,22.43
2023-05-14T11:22:37.099Z,22.42
2023-05-14T11:25:04.428Z,22.41
2023-05-14T11:27:39.393Z,22.42
2023-05-14T11:30:15.204Z,22.43
2023-05-14T11:32:42.233Z,22.45
2023-05-14T11:35:09.254Z,22.46
2023-05-14T11:37:36.158Z,22.47
2023-05-14T11:40:02.961Z,22.48
2023-05-14T11:42:29.692Z,22.47
2023-05-14T11:44:56.814Z,22.47
2023-05-14T11:47:23.465Z,22.48
2023-05-14T11:49:50.244Z,22.50
2023-05-14T11:52:19.736Z,22.52
2023-05-14T11:54:46.584Z,22.55
2023-05-14T11:57:16.373Z,22.59
2023-05-14T11:59:43.156Z,22.63
2023-05-14T12:02:17.440Z,22.71
2023-05-14T12:04:44.239Z,22.81
2023-05-14T12:07:12.864Z,22.94
2023-05-14T12:09:49.369Z,23.05
2023-05-14T12:12:19.017Z,23.16
2023-05-14T12:14:45.745Z,23.23
2023-05-14T12:17:17.214Z,23.32
2023-05-14T12:19:44.530Z,23.42
2023-05-14T12:22:11.709Z,23.52
2023-05-14T12:24:39.284Z,23.64
2023-05-14T12:27:06.945Z,23.73
2023-05-14T12:29:38.668Z,23.82
2023-05-14T12:32:09.456Z,23.91
2023-05-14T12:34:37.692Z,23.97
2023-05-14T12:37:05.842Z,24.03
2023-05-14T12:39:33.261Z,24.07
2023-05-14T12:42:00.180Z,24.04
2023-05-14T12:44:26.956Z,23.99
2023-05-14T12:46:53.726Z,23.98
2023-05-14T12:49:20.651Z,24.00
2023-05-14T12:51:47.393Z,24.01
2023-05-14T12:54:16.138Z,23.96
2023-05-14T12:56:42.877Z,23.95
2023-05-14T12:59:09.614Z,23.94
2023-05-14T13:01:37.714Z,23.91
2023-05-14T13:04:05.688Z,23.82
2023-05-14T13:06:32.657Z,23.69
2023-05-14T13:09:01.803Z,23.52
2023-05-14T13:11:30.383Z,23.40
2023-05-14T13:13:57.551Z,23.35
2023-05-14T13:16:25.719Z,23.31
2023-05-14T13:18:52.432Z,23.27
2023-05-14T13:21:19.249Z,23.20
2023-05-14T13:23:46.045Z,23.10
2023-05-14T13:26:12.730Z,23.00
2023-05-14T13:28:39.475Z,22.94
2023-05-14T13:31:10.814Z,22.89
2023-05-14T13:33:39.723Z,22.88
2023-05-14T13:36:06.988Z,22.84
2023-05-14T13:38:33.998Z,22.77
2023-05-14T13:41:03.840Z,22.70
2023-05-14T13:43:34.109Z,22.61
2023-05-14T13:46:01.358Z,22.52
2023-05-14T13:48:28.276Z,22.46
2023-05-14T13:50:55.027Z,22.37
2023-05-14T13:53:23.010Z,22.30
2023-05-14T13:55:50.405Z,22.23
2023-05-14T13:58:17.229Z,22.17
2023-05-14T14:00:44.020Z,22.12
2023-05-14T14:03:10.784Z,22.09
2023-05-14T14:05:37.709Z,22.06
2023-05-14T14:08:21.870Z,22.04
2023-05-14T14:10:50.820Z,22.03
2023-05-14T14:13:17.508Z,22.01
2023-05-14T14:15:44.536Z,21.97
2023-05-14T14:18:11.440Z,21.94
2023-05-14T14:20:38.330Z,21.90
2023-05-14T14:23:05.069Z,21.87
2023-05-14T14:25:31.762Z,21.83
2023-05-14T14:27:58.555Z,21.78
2023-05-14T14:30:25.346Z,21.74
2023-05-14T14:32:52.246Z,21.69
2023-05-14T14:35:19.326Z,21.64
2023-05-14T14:37:49.233Z,21.58
2023-05-14T14:40:16.833Z,21.52
2023-05-14T14:42:43.618Z,21.47
2023-05-14T14:45:10.748Z,21.44
2023-05-14T14:47:37.389Z,21.41
2023-05-14T14:50:04.492Z,21.39
2023-05-14T14:52:31.404Z,21.37
2023-05-14T14:54:58.130Z,21.34
2023-05-14T14:57:24.893Z,21.32
2023-05-14T14:59:51.621Z,21.30
2023-05-14T15:02:18.383Z,21.26
2023-05-14T15:04:45.034Z,21.22
2023-05-14T15:07:11.761Z,21.18
2023-05-14T15:09:38.733Z,21.13
2023-05-14T15:12:06.065Z,21.08
2023-05-14T15:14:32.805Z,21.05
2023-05-14T15:16:59.613Z,21.01
2023-05-14T15:19:26.358Z,20.98
2023-05-14T15:21:53.016Z,20.94
2023-05-14T15:24:19.803Z,20.91
2023-05-14T15:26:46.812Z,20.87
2023-05-14T15:29:13.606Z,20.83
2023-05-14T15:31:41.415Z,20.78
2023-05-14T15:34:08.275Z,20.74
2023-05-14T15:36:34.958Z,20.70
2023-05-14T15:39:01.667Z,20.67
2023-05-14T15:41:28.880Z,20.64
2023-05-14T15:43:56.248Z,20.62
2023-05-14T15:46:24.100Z,20.60
2023-05-14T15:48:50.921Z,20.59
2023-05-14T15:51:17.605Z,20.58
2023-05-14T15:53:44.269Z,20.57
2023-05-14T15:56:11.051Z,20.56
2023-05-14T15:58:37.756Z,20.56
2023-05-14T16:01:04.734Z,20.54
2023-05-14T16:03:31.606Z,20.52
2023-05-14T16:05:58.573Z,20.50
2023-05-14T16:08:25.410Z,20.47
2023-05-14T16:10:52.026Z,20.44
2023-05-14T16:13:19.177Z,20.39
2023-05-14T16:15:45.892Z,20.35
2023-05-14T16:18:12.625Z,20.30
2023-05-14T16:20:39.367Z,20.24
2023-05-14T16:23:06.083Z,20.18
2023-05-14T16:25:32.775Z,20.13
2023-05-14T16:27:59.457Z,20.07
2023-05-14T16:30:26.193Z,20.03
2023-05-14T16:32:52.984Z,19.97
2023-05-14T16:35:19.735Z,19.90
2023-05-14T16:37:46.500Z,19.83
2023-05-14T16:40:13.548Z,19.76
2023-05-14T16:42:40.466Z,19.69
2023-05-14T16:45:08.248Z,19.61
2023-05-14T16:47:34.947Z,19.54
2023-05-14T16:50:01.972Z,19.47
2023-05-14T16:52:28.817Z,19.38
2023-05-14T16:54:55.463Z,19.30
2023-05-14T16:57:22.103Z,19.20
2023-05-14T16:59:48.791Z,19.11
2023-05-14T17:02:15.564Z,19.03
2023-05-14T17:04:42.384Z,18.95
2023-05-14T17:07:09.502Z,18.88
2023-05-14T17:09:36.319Z,18.80
2023-05-14T17:12:03.282Z,18.70
2023-05-14T17:14:29.961Z,18.60
2023-05-14T17:16:56.611Z,18.52
2023-05-14T17:19:23.321Z,18.44
2023-05-14T17:21:50.032Z,18.36
2023-05-14T17:24:16.722Z,18.29
2023-05-14T17:26:43.440Z,18.22
2023-05-14T17:29:10.065Z,18.15
2023-05-14T17:31:36.786Z,18.08
2023-05-14T17:34:03.441Z,18.01
2023-05-14T17:36:31.628Z,17.94
2023-05-14T17:38:58.273Z,17.87
2023-05-14T17:41:24.957Z,17.81
2023-05-14T17:43:52.535Z,17.73
2023-05-14T17:48:41.627Z,17.58
2023-05-14T17:51:08.164Z,17.43
2023-05-14T17:53:34.991Z,17.32
2023-05-14T17:56:01.409Z,17.24
2023-05-14T17:58:28.142Z,17.16
2023-05-14T18:00:54.963Z,17.10
2023-05-14T18:03:21.595Z,17.04
2023-05-14T18:05:48.798Z,16.97
2023-05-14T18:08:16.919Z,16.89
2023-05-14T18:10:44.032Z,16.81
2023-05-14T18:13:10.584Z,16.72
2023-05-14T18:15:38.125Z,16.64
2023-05-14T18:18:05.028Z,16.56
2023-05-14T18:20:33.328Z,16.44
2023-05-14T18:23:00.585Z,16.30
2023-05-14T18:25:27.491Z,16.14
2023-05-14T18:27:53.930Z,15.99
2023-05-14T18:30:20.697Z,15.88
2023-05-14T18:32:47.279Z,15.79
2023-05-14T18:35:14.113Z,15.71
2023-05-14T18:37:41.180Z,15.66
2023-05-14T18:40:08.323Z,15.64
2023-05-14T18:42:35.656Z,15.60
2023-05-14T18:45:03.451Z,15.59
2023-05-14T18:47:30.373Z,15.59
2023-05-14T18:49:58.997Z,15.59
2023-05-14T18:52:26.093Z,15.59
2023-05-14T18:54:53.905Z,15.59
2023-05-14T18:57:20.822Z,15.59
2023-05-14T18:59:47.362Z,15.60
2023-05-14T19:02:13.845Z,15.60
2023-05-14T19:04:51.121Z,15.58
2023-05-14T19:07:18.918Z,15.52
2023-05-14T19:09:45.495Z,15.43
2023-05-14T19:12:12.299Z,15.33
2023-05-14T19:14:38.993Z,15.26
2023-05-14T19:17:05.512Z,15.21
2023-05-14T19:19:32.514Z,15.20
2023-05-14T19:22:03.382Z,15.22
2023-05-14T19:24:30.920Z,15.25
2023-05-14T19:26:58.297Z,15.28
2023-05-14T19:29:24.950Z,15.31
2023-05-14T19:31:53.108Z,15.34
2023-05-14T19:34:19.881Z,15.36
2023-05-14T19:36:48.163Z,15.38
2023-05-14T19:39:14.894Z,15.39
2023-05-14T19:41:41.407Z,15.38
2023-05-14T19:44:07.935Z,15.38
2023-05-14T19:46:34.645Z,15.38
2023-05-14T19:49:01.279Z,15.39
2023-05-14T19:51:28.116Z,15.38
2023-05-14T19:53:54.672Z,15.39
2023-05-14T19:56:21.927Z,15.38
2023-05-14T19:58:48.605Z,15.38
2023-05-14T20:01:15.394Z,15.35
2023-05-14T20:03:42.493Z,15.32
2023-05-14T20:06:09.025Z,15.30
2023-05-14T20:08:35.495Z,15.28
2023-05-14T20:11:02.614Z,15.26
2023-05-14T20:13:31.389Z,15.24
2023-05-14T20:15:58.230Z,15.21
2023-05-14T20:18:24.918Z,15.18
2023-05-14T20:20:51.418Z,15.15
2023-05-14T20:23:18.175Z,15.11
2023-05-14T20:25:44.787Z,15.06
2023-05-14T20:28:11.408Z,14.99
2023-05-14T20:30:38.024Z,14.92
2023-05-14T20:33:05.995Z,14.86
2023-05-14T20:35:33.122Z,14.81
2023-05-14T20:37:59.871Z,14.75
2023-05-14T20:40:27.163Z,14.69
2023-05-14T20:42:53.743Z,14.63
2023-05-14T20:45:20.701Z,14.57
2023-05-14T20:47:47.223Z,14.51
2023-05-14T20:50:13.887Z,14.41
2023-05-14T20:52:41.175Z,14.31
2023-05-14T20:55:08.318Z,14.22
2023-05-14T20:57:35.009Z,14.12
2023-05-14T21:00:06.387Z,13.99
2023-05-14T21:02:33.703Z,13.87
2023-05-14T21:05:00.451Z,13.79
2023-05-14T21:07:28.832Z,13.74
2023-05-14T21:09:55.496Z,13.69
2023-05-14T21:12:22.467Z,13.65
2023-05-14T21:14:48.973Z,13.61
2023-05-14T21:17:15.616Z,13.57
2023-05-14T21:19:42.071Z,13.54
2023-05-14T21:22:08.530Z,13.52
2023-05-14T21:24:35.351Z,13.50
2023-05-14T21:27:02.400Z,13.47
2023-05-14T21:29:29.171Z,13.42
2023-05-14T21:31:55.823Z,13.35
2023-05-14T21:34:22.351Z,13.26
2023-05-14T21:36:48.894Z,13.19
2023-05-14T21:39:15.403Z,13.13
2023-05-14T21:41:41.856Z,13.07
2023-05-14T21:44:08.508Z,13.04
2023-05-14T21:46:35.390Z,12.97
2023-05-14T21:49:02.219Z,12.90
2023-05-14T21:51:29.203Z,12.87
2023-05-14T21:53:55.716Z,12.85
2023-05-14T21:56:22.884Z,12.86
2023-05-14T21:58:49.342Z,12.87
2023-05-14T22:01:15.918Z,12.91
2023-05-14T22:03:42.792Z,12.94
2023-05-14T22:06:09.575Z,12.97
2023-05-14T22:08:36.186Z,13.00
2023-05-14T22:11:02.881Z,13.03
2023-05-14T22:13:30.006Z,13.03
2023-05-14T22:16:09.195Z,13.03
2023-05-14T22:18:39.942Z,13.03
2023-05-14T22:21:06.348Z,13.00
2023-05-14T22:23:32.808Z,12.98
2023-05-14T22:25:59.275Z,12.96
2023-05-14T22:28:25.772Z,12.95
2023-05-14T22:30:52.327Z,12.95
2023-05-14T22:33:19.163Z,12.94
2023-05-14T22:35:45.642Z,12.94
2023-05-14T22:38:13.457Z,12.92
2023-05-14T22:40:40.205Z,12.91
2023-05-14T22:43:07.066Z,12.88
2023-05-14T22:45:34.053Z,12.86
2023-05-14T22:48:00.676Z,12.83
2023-05-14T22:50:27.248Z,12.80
2023-05-14T22:52:53.809Z,12.76
2023-05-14T22:55:20.584Z,12.73
2023-05-14T22:57:46.992Z,12.71
2023-05-14T23:00:13.931Z,12.69
2023-05-14T23:02:40.750Z,12.66
2023-05-14T23:05:08.080Z,12.62
2023-05-14T23:07:34.552Z,12.57
2023-05-14T23:10:01.316Z,12.54
2023-05-14T23:12:28.028Z,12.52
2023-05-14T23:14:54.442Z,12.51
2023-05-14T23:17:21.249Z,12.50
2023-05-14T23:19:47.813Z,12.47
2023-05-14T23:22:14.577Z,12.44
2023-05-14T23:24:41.028Z,12.37
2023-05-14T23:27:07.493Z,12.29
2023-05-14T23:29:34.061Z,12.20
2023-05-14T23:32:00.668Z,12.12
2023-05-14T23:34:27.416Z,12.06
2023-05-14T23:36:53.906Z,11.98
2023-05-14T23:39:20.960Z,11.89
2023-05-14T23:41:47.396Z,11.79
2023-05-14T23:44:14.468Z,11.74
2023-05-14T23:46:40.951Z,11.71
2023-05-14T23:49:08.616Z,11.70
2023-05-14T23:51:36.342Z,11.69
2023-05-14T23:54:02.980Z,11.68
2023-05-14T23:56:29.729Z,11.66
2023-05-14T23:58:56.331Z,11.63
